sensor_id;sensor_type;location;lat;lon;timestamp;pressure;altitude;pressure_sealevel;temperature;humidity
66627;BME280;53498;50.422;14.912;2023-07-13T07:18:18;98779.47;;;22.85;73.63
66627;BME280;53498;50.422;14.912;2023-07-13T07:20:44;98792.34;;;23.24;70.53
66627;BME280;53498;50.422;14.912;2023-07-13T07:23:09;98784.13;;;23.13;69.85
66627;BME280;53498;50.422;14.912;2023-07-13T07:25:36;98789.63;;;23.10;71.09
66627;BME280;53498;50.422;14.912;2023-07-13T07:28:07;98792.28;;;23.10;68.80
66627;BME280;53498;50.422;14.912;2023-07-13T07:30:33;98788.66;;;23.27;68.79
66627;BME280;53498;50.422;14.912;2023-07-13T07:32:59;98796.16;;;23.35;68.82
66627;BME280;53498;50.422;14.912;2023-07-13T07:35:25;98791.72;;;23.51;68.24
66627;BME280;53498;50.422;14.912;2023-07-13T07:37:50;98792.47;;;23.69;67.54
66627;BME280;53498;50.422;14.912;2023-07-13T07:40:16;98803.59;;;23.91;65.25
66627;BME280;53498;50.422;14.912;2023-07-13T07:42:42;98803.28;;;23.96;65.34
66627;BME280;53498;50.422;14.912;2023-07-13T07:45:07;98803.22;;;23.97;63.17
66627;BME280;53498;50.422;14.912;2023-07-13T07:47:33;98805.53;;;24.18;59.25
66627;BME280;53498;50.422;14.912;2023-07-13T07:49:59;98810.38;;;24.11;59.17
66627;BME280;53498;50.422;14.912;2023-07-13T07:52:24;98814.16;;;24.07;59.48
66627;BME280;53498;50.422;14.912;2023-07-13T07:54:50;98812.47;;;24.20;59.93
66627;BME280;53498;50.422;14.912;2023-07-13T07:57:15;98816.75;;;24.37;59.29
66627;BME280;53498;50.422;14.912;2023-07-13T07:59:41;98814.53;;;24.45;58.62
66627;BME280;53498;50.422;14.912;2023-07-13T08:02:09;98821.84;;;24.42;57.82
66627;BME280;53498;50.422;14.912;2023-07-13T08:04:36;98825.94;;;24.62;56.08
66627;BME280;53498;50.422;14.912;2023-07-13T08:07:01;98835.75;;;24.31;56.31
66627;BME280;53498;50.422;14.912;2023-07-13T08:09:28;98829.31;;;24.35;55.01
66627;BME280;53498;50.422;14.912;2023-07-13T08:11:54;98827.81;;;24.15;54.70
66627;BME280;53498;50.422;14.912;2023-07-13T08:14:20;98824.88;;;24.50;52.95
66627;BME280;53498;50.422;14.912;2023-07-13T08:16:46;98829.28;;;24.51;51.19
66627;BME280;53498;50.422;14.912;2023-07-13T08:19:12;98824.69;;;24.82;51.33
66627;BME280;53498;50.422;14.912;2023-07-13T08:21:37;98823.19;;;24.19;53.14
66627;BME280;53498;50.422;14.912;2023-07-13T08:24:03;98833.00;;;24.33;52.66
66627;BME280;53498;50.422;14.912;2023-07-13T08:26:29;98831.34;;;24.46;50.93
66627;BME280;53498;50.422;14.912;2023-07-13T08:28:55;98836.31;;;24.66;50.72
66627;BME280;53498;50.422;14.912;2023-07-13T08:31:20;98839.81;;;24.96;49.38
66627;BME280;53498;50.422;14.912;2023-07-13T08:33:46;98831.94;;;24.65;47.83
66627;BME280;53498;50.422;14.912;2023-07-13T08:36:11;98831.34;;;24.46;47.92
66627;BME280;53498;50.422;14.912;2023-07-13T08:38:37;98840.19;;;24.16;49.30
66627;BME280;53498;50.422;14.912;2023-07-13T08:41:11;98841.63;;;23.92;50.24
66627;BME280;53498;50.422;14.912;2023-07-13T08:43:42;98847.38;;;23.84;50.03
66627;BME280;53498;50.422;14.912;2023-07-13T08:46:28;98853.19;;;23.91;48.63
66627;BME280;53498;50.422;14.912;2023-07-13T08:49:10;98851.38;;;24.07;47.94
66627;BME280;53498;50.422;14.912;2023-07-13T08:54:12;98854.66;;;24.41;51.64
66627;BME280;53498;50.422;14.912;2023-07-13T08:56:53;98855.50;;;23.81;49.91
66627;BME280;53498;50.422;14.912;2023-07-13T08:59:22;98853.47;;;23.86;50.58
66627;BME280;53498;50.422;14.912;2023-07-13T09:04:45;98865.44;;;24.54;48.50
66627;BME280;53498;50.422;14.912;2023-07-13T09:07:40;98864.69;;;24.21;47.44
66627;BME280;53498;50.422;14.912;2023-07-13T09:10:17;98859.19;;;24.24;48.74
66627;BME280;53498;50.422;14.912;2023-07-13T09:15:30;98861.72;;;24.42;48.14
66627;BME280;53498;50.422;14.912;2023-07-13T09:18:08;98867.63;;;24.76;47.18
66627;BME280;53498;50.422;14.912;2023-07-13T09:20:49;98861.09;;;24.96;45.82
66627;BME280;53498;50.422;14.912;2023-07-13T09:23:23;98864.75;;;24.50;46.42
66627;BME280;53498;50.422;14.912;2023-07-13T09:25:53;98858.88;;;24.45;46.09
66627;BME280;53498;50.422;14.912;2023-07-13T09:28:27;98856.25;;;24.74;46.88
66627;BME280;53498;50.422;14.912;2023-07-13T09:33:40;98865.28;;;24.41;43.90
66627;BME280;53498;50.422;14.912;2023-07-13T09:36:20;98863.75;;;24.37;44.21
66627;BME280;53498;50.422;14.912;2023-07-13T09:38:48;98871.47;;;24.86;45.40
66627;BME280;53498;50.422;14.912;2023-07-13T09:46:35;98879.63;;;24.54;45.61
66627;BME280;53498;50.422;14.912;2023-07-13T09:49:01;98885.41;;;24.61;46.12
66627;BME280;53498;50.422;14.912;2023-07-13T09:51:26;98891.81;;;24.73;44.24
66627;BME280;53498;50.422;14.912;2023-07-13T09:53:52;98891.72;;;24.88;42.77
66627;BME280;53498;50.422;14.912;2023-07-13T09:56:28;98884.75;;;24.72;43.38
66627;BME280;53498;50.422;14.912;2023-07-13T09:58:56;98892.94;;;24.83;42.06
66627;BME280;53498;50.422;14.912;2023-07-13T10:01:37;98895.75;;;24.65;42.26
66627;BME280;53498;50.422;14.912;2023-07-13T10:04:12;98902.63;;;24.69;41.68
66627;BME280;53498;50.422;14.912;2023-07-13T10:06:39;98907.00;;;24.99;41.60
66627;BME280;53498;50.422;14.912;2023-07-13T10:09:08;98902.94;;;25.22;39.39
66627;BME280;53498;50.422;14.912;2023-07-13T10:11:36;98898.78;;;25.18;40.01
66627;BME280;53498;50.422;14.912;2023-07-13T10:14:16;98910.84;;;25.24;38.82
66627;BME280;53498;50.422;14.912;2023-07-13T10:16:44;98908.84;;;25.27;40.43
66627;BME280;53498;50.422;14.912;2023-07-13T10:19:14;98910.16;;;25.49;39.91
66627;BME280;53498;50.422;14.912;2023-07-13T10:21:57;98916.41;;;25.48;39.89
66627;BME280;53498;50.422;14.912;2023-07-13T10:24:31;98913.47;;;25.38;38.79
66627;BME280;53498;50.422;14.912;2023-07-13T10:27:03;98913.19;;;25.28;38.32
66627;BME280;53498;50.422;14.912;2023-07-13T10:29:35;98916.13;;;25.38;38.15
66627;BME280;53498;50.422;14.912;2023-07-13T10:32:09;98922.81;;;25.31;38.51
66627;BME280;53498;50.422;14.912;2023-07-13T10:34:35;98920.16;;;25.72;38.54
66627;BME280;53498;50.422;14.912;2023-07-13T10:37:01;98919.56;;;25.54;38.36
66627;BME280;53498;50.422;14.912;2023-07-13T10:39:28;98923.94;;;25.55;38.82
66627;BME280;53498;50.422;14.912;2023-07-13T10:41:55;98923.94;;;25.97;39.45
66627;BME280;53498;50.422;14.912;2023-07-13T10:44:31;98919.59;;;25.81;39.07
66627;BME280;53498;50.422;14.912;2023-07-13T10:47:01;98915.81;;;25.86;38.10
66627;BME280;53498;50.422;14.912;2023-07-13T10:49:28;98911.97;;;25.48;37.08
66627;BME280;53498;50.422;14.912;2023-07-13T10:51:54;98912.75;;;25.36;37.99
66627;BME280;53498;50.422;14.912;2023-07-13T10:54:22;98907.06;;;25.13;38.84
66627;BME280;53498;50.422;14.912;2023-07-13T10:57:14;98908.84;;;25.69;38.29
66627;BME280;53498;50.422;14.912;2023-07-13T10:59:42;98897.09;;;25.58;38.15
66627;BME280;53498;50.422;14.912;2023-07-13T11:02:20;98898.91;;;25.99;37.86
66627;BME280;53498;50.422;14.912;2023-07-13T11:04:48;98903.53;;;25.83;37.60
66627;BME280;53498;50.422;14.912;2023-07-13T11:07:54;98903.22;;;25.88;38.30
66627;BME280;53498;50.422;14.912;2023-07-13T11:10:47;98901.31;;;26.17;37.54
66627;BME280;53498;50.422;14.912;2023-07-13T11:21:26;98899.03;;;27.53;36.30
66627;BME280;53498;50.422;14.912;2023-07-13T11:24:01;98901.03;;;27.62;33.76
66627;BME280;53498;50.422;14.912;2023-07-13T11:31:43;98887.81;;;26.33;34.91
66627;BME280;53498;50.422;14.912;2023-07-13T11:34:19;98881.25;;;27.15;33.84
66627;BME280;53498;50.422;14.912;2023-07-13T11:36:47;98869.78;;;27.38;34.99
66627;BME280;53498;50.422;14.912;2023-07-13T11:39:31;98892.56;;;26.93;34.76
66627;BME280;53498;50.422;14.912;2023-07-13T11:42:07;98890.38;;;26.47;36.40
66627;BME280;53498;50.422;14.912;2023-07-13T11:44:34;98885.19;;;26.18;37.53
66627;BME280;53498;50.422;14.912;2023-07-13T11:47:14;98889.88;;;26.15;37.97
66627;BME280;53498;50.422;14.912;2023-07-13T11:49:45;98898.28;;;25.81;38.98
66627;BME280;53498;50.422;14.912;2023-07-13T11:52:19;98902.69;;;25.68;38.98
66627;BME280;53498;50.422;14.912;2023-07-13T11:54:52;98889.94;;;25.59;39.08
66627;BME280;53498;50.422;14.912;2023-07-13T11:57:32;98883.84;;;25.71;39.34
66627;BME280;53498;50.422;14.912;2023-07-13T12:00:13;98881.63;;;25.78;39.60
66627;BME280;53498;50.422;14.912;2023-07-13T12:02:46;98880.28;;;25.85;39.80
66627;BME280;53498;50.422;14.912;2023-07-13T12:05:15;98873.97;;;26.13;40.16
66627;BME280;53498;50.422;14.912;2023-07-13T12:07:46;98875.88;;;26.51;40.21
66627;BME280;53498;50.422;14.912;2023-07-13T12:12:55;98883.41;;;26.31;40.72
66627;BME280;53498;50.422;14.912;2023-07-13T12:15:22;98878.84;;;26.34;41.10
66627;BME280;53498;50.422;14.912;2023-07-13T12:17:49;98879.38;;;25.99;41.46
66627;BME280;53498;50.422;14.912;2023-07-13T12:23:23;98896.63;;;25.79;42.25
66627;BME280;53498;50.422;14.912;2023-07-13T12:25:51;98883.41;;;25.50;41.55
66627;BME280;53498;50.422;14.912;2023-07-13T12:31:30;98879.63;;;25.11;42.27
66627;BME280;53498;50.422;14.912;2023-07-13T12:36:23;98879.66;;;25.67;42.12
66627;BME280;53498;50.422;14.912;2023-07-13T12:38:49;98882.28;;;25.54;41.12
66627;BME280;53498;50.422;14.912;2023-07-13T12:41:15;98869.81;;;25.82;40.64
66627;BME280;53498;50.422;14.912;2023-07-13T12:43:40;98864.09;;;25.88;40.25
66627;BME280;53498;50.422;14.912;2023-07-13T12:46:21;98869.16;;;26.05;40.70
66627;BME280;53498;50.422;14.912;2023-07-13T12:48:51;98858.94;;;26.12;39.83
66627;BME280;53498;50.422;14.912;2023-07-13T12:51:22;98865.06;;;25.87;40.29
66627;BME280;53498;50.422;14.912;2023-07-13T12:53:51;98875.72;;;26.27;39.66
66627;BME280;53498;50.422;14.912;2023-07-13T12:56:25;98876.84;;;26.10;39.44
66627;BME280;53498;50.422;14.912;2023-07-13T12:59:01;98883.13;;;26.36;39.53
66627;BME280;53498;50.422;14.912;2023-07-13T13:01:29;98884.22;;;26.59;39.38
66627;BME280;53498;50.422;14.912;2023-07-13T13:04:01;98887.81;;;26.45;38.41
66627;BME280;53498;50.422;14.912;2023-07-13T13:06:32;98887.69;;;25.94;36.61
66627;BME280;53498;50.422;14.912;2023-07-13T13:08:58;98886.78;;;26.08;37.21
66627;BME280;53498;50.422;14.912;2023-07-13T13:11:26;98887.78;;;25.78;38.79
66627;BME280;53498;50.422;14.912;2023-07-13T13:13:52;98884.81;;;25.97;38.11
66627;BME280;53498;50.422;14.912;2023-07-13T13:16:28;98886.00;;;26.06;37.37
66627;BME280;53498;50.422;14.912;2023-07-13T13:18:59;98886.50;;;26.25;37.69
66627;BME280;53498;50.422;14.912;2023-07-13T13:21:25;98889.72;;;26.30;37.04
66627;BME280;53498;50.422;14.912;2023-07-13T13:23:51;98879.53;;;26.23;37.51
66627;BME280;53498;50.422;14.912;2023-07-13T13:26:19;98881.72;;;25.76;37.64
66627;BME280;53498;50.422;14.912;2023-07-13T13:28:46;98880.72;;;25.65;37.47
66627;BME280;53498;50.422;14.912;2023-07-13T13:31:13;98869.59;;;25.99;36.88
66627;BME280;53498;50.422;14.912;2023-07-13T13:33:44;98859.59;;;26.16;35.44
66627;BME280;53498;50.422;14.912;2023-07-13T13:36:21;98867.22;;;26.47;34.42
66627;BME280;53498;50.422;14.912;2023-07-13T13:38:50;98866.94;;;26.90;33.91
66627;BME280;53498;50.422;14.912;2023-07-13T13:41:16;98872.50;;;26.49;32.45
66627;BME280;53498;50.422;14.912;2023-07-13T13:43:42;98857.56;;;26.72;33.25
66627;BME280;53498;50.422;14.912;2023-07-13T13:46:17;98855.06;;;26.94;34.83
66627;BME280;53498;50.422;14.912;2023-07-13T13:48:44;98852.97;;;26.74;35.91
66627;BME280;53498;50.422;14.912;2023-07-13T13:51:16;98847.63;;;26.74;35.38
66627;BME280;53498;50.422;14.912;2023-07-13T13:53:42;98846.66;;;26.62;35.38
66627;BME280;53498;50.422;14.912;2023-07-13T13:56:08;98854.13;;;26.57;36.59
66627;BME280;53498;50.422;14.912;2023-07-13T13:58:34;98858.19;;;26.63;32.90
66627;BME280;53498;50.422;14.912;2023-07-13T14:01:00;98851.34;;;26.46;33.88
66627;BME280;53498;50.422;14.912;2023-07-13T14:03:26;98849.72;;;26.43;33.61
66627;BME280;53498;50.422;14.912;2023-07-13T14:05:53;98850.19;;;26.63;35.37
66627;BME280;53498;50.422;14.912;2023-07-13T14:08:20;98848.28;;;26.77;36.72
66627;BME280;53498;50.422;14.912;2023-07-13T14:10:49;98847.09;;;26.69;36.49
66627;BME280;53498;50.422;14.912;2023-07-13T14:13:19;98844.22;;;26.06;37.63
66627;BME280;53498;50.422;14.912;2023-07-13T14:15:46;98839.31;;;26.13;37.82
66627;BME280;53498;50.422;14.912;2023-07-13T14:18:13;98839.69;;;26.34;37.52
66627;BME280;53498;50.422;14.912;2023-07-13T14:20:44;98839.34;;;26.26;37.51
66627;BME280;53498;50.422;14.912;2023-07-13T14:23:18;98831.38;;;26.39;37.02
66627;BME280;53498;50.422;14.912;2023-07-13T14:25:47;98838.69;;;26.22;37.36
66627;BME280;53498;50.422;14.912;2023-07-13T14:28:19;98834.22;;;26.23;37.35
66627;BME280;53498;50.422;14.912;2023-07-13T14:30:46;98843.91;;;26.11;37.54
66627;BME280;53498;50.422;14.912;2023-07-13T14:33:13;98842.28;;;25.96;37.61
66627;BME280;53498;50.422;14.912;2023-07-13T14:35:45;98842.88;;;26.14;37.17
66627;BME280;53498;50.422;14.912;2023-07-13T14:38:14;98839.28;;;26.00;37.82
66627;BME280;53498;50.422;14.912;2023-07-13T14:40:41;98833.63;;;25.92;37.78
66627;BME280;53498;50.422;14.912;2023-07-13T14:43:11;98828.50;;;25.89;37.73
66627;BME280;53498;50.422;14.912;2023-07-13T14:45:48;98830.13;;;25.92;38.07
66627;BME280;53498;50.422;14.912;2023-07-13T14:48:22;98831.72;;;25.94;37.49
66627;BME280;53498;50.422;14.912;2023-07-13T14:50:56;98822.22;;;25.76;37.35
66627;BME280;53498;50.422;14.912;2023-07-13T14:53:22;98828.13;;;26.08;37.67
66627;BME280;53498;50.422;14.912;2023-07-13T14:55:48;98826.88;;;26.26;36.94
66627;BME280;53498;50.422;14.912;2023-07-13T14:58:14;98823.06;;;26.43;36.87
66627;BME280;53498;50.422;14.912;2023-07-13T15:00:46;98831.34;;;26.26;35.82
66627;BME280;53498;50.422;14.912;2023-07-13T15:03:23;98835.38;;;26.19;36.63
66627;BME280;53498;50.422;14.912;2023-07-13T15:05:50;98829.19;;;26.05;36.97
66627;BME280;53498;50.422;14.912;2023-07-13T15:08:16;98834.09;;;26.12;35.43
66627;BME280;53498;50.422;14.912;2023-07-13T15:10:42;98841.50;;;26.46;34.36
66627;BME280;53498;50.422;14.912;2023-07-13T15:13:19;98835.63;;;26.41;33.86
66627;BME280;53498;50.422;14.912;2023-07-13T15:15:47;98838.09;;;26.44;34.11
66627;BME280;53498;50.422;14.912;2023-07-13T15:18:15;98840.81;;;26.04;34.69
66627;BME280;53498;50.422;14.912;2023-07-13T15:20:43;98851.91;;;26.11;34.29
66627;BME280;53498;50.422;14.912;2023-07-13T15:23:14;98832.50;;;26.22;34.17
66627;BME280;53498;50.422;14.912;2023-07-13T15:25:41;98831.03;;;26.18;33.49
66627;BME280;53498;50.422;14.912;2023-07-13T15:28:07;98838.84;;;26.34;33.18
66627;BME280;53498;50.422;14.912;2023-07-13T15:30:39;98836.03;;;26.22;33.94
66627;BME280;53498;50.422;14.912;2023-07-13T15:35:36;98844.13;;;26.08;34.01
66627;BME280;53498;50.422;14.912;2023-07-13T15:38:12;98843.16;;;26.09;34.05
66627;BME280;53498;50.422;14.912;2023-07-13T15:40:38;98845.03;;;25.94;34.18
66627;BME280;53498;50.422;14.912;2023-07-13T15:43:10;98833.28;;;25.70;34.81
66627;BME280;53498;50.422;14.912;2023-07-13T15:45:36;98851.69;;;25.60;34.73
66627;BME280;53498;50.422;14.912;2023-07-13T15:48:02;98868.00;;;25.41;35.05
66627;BME280;53498;50.422;14.912;2023-07-13T15:50:30;98862.03;;;25.37;34.77
66627;BME280;53498;50.422;14.912;2023-07-13T15:53:10;98864.03;;;25.48;34.96
66627;BME280;53498;50.422;14.912;2023-07-13T15:55:38;98866.97;;;25.44;35.18
66627;BME280;53498;50.422;14.912;2023-07-13T15:58:09;98861.69;;;25.56;35.42
66627;BME280;53498;50.422;14.912;2023-07-13T16:00:36;98865.47;;;25.81;36.09
66627;BME280;53498;50.422;14.912;2023-07-13T16:03:10;98866.91;;;25.99;34.95
66627;BME280;53498;50.422;14.912;2023-07-13T16:05:36;98862.69;;;26.22;35.44
66627;BME280;53498;50.422;14.912;2023-07-13T16:08:03;98864.03;;;26.42;34.89
66627;BME280;53498;50.422;14.912;2023-07-13T16:10:32;98862.91;;;26.19;34.26
66627;BME280;53498;50.422;14.912;2023-07-13T16:13:01;98857.25;;;26.11;35.20
66627;BME280;53498;50.422;14.912;2023-07-13T16:15:26;98866.53;;;26.18;34.50
66627;BME280;53498;50.422;14.912;2023-07-13T16:17:53;98862.47;;;26.13;34.65
66627;BME280;53498;50.422;14.912;2023-07-13T16:20:20;98856.97;;;25.89;34.98
66627;BME280;53498;50.422;14.912;2023-07-13T16:22:48;98858.03;;;25.86;35.16
66627;BME280;53498;50.422;14.912;2023-07-13T16:25:20;98856.09;;;25.88;35.24
66627;BME280;53498;50.422;14.912;2023-07-13T16:27:46;98861.63;;;25.85;35.88
66627;BME280;53498;50.422;14.912;2023-07-13T16:30:21;98856.88;;;25.90;35.91
66627;BME280;53498;50.422;14.912;2023-07-13T16:32:50;98857.84;;;25.89;35.94
66627;BME280;53498;50.422;14.912;2023-07-13T16:35:24;98857.63;;;25.92;36.16
66627;BME280;53498;50.422;14.912;2023-07-13T16:37:51;98862.31;;;25.89;35.32
66627;BME280;53498;50.422;14.912;2023-07-13T16:42:48;98867.94;;;25.84;35.72
66627;BME280;53498;50.422;14.912;2023-07-13T16:45:14;98867.31;;;25.79;35.68
66627;BME280;53498;50.422;14.912;2023-07-13T16:47:42;98871.56;;;25.83;35.76
66627;BME280;53498;50.422;14.912;2023-07-13T16:50:20;98869.06;;;25.80;35.34
66627;BME280;53498;50.422;14.912;2023-07-13T16:52:47;98880.31;;;25.71;36.08
66627;BME280;53498;50.422;14.912;2023-07-13T16:55:14;98875.72;;;25.73;35.84
66627;BME280;53498;50.422;14.912;2023-07-13T16:57:43;98871.56;;;25.69;35.48
66627;BME280;53498;50.422;14.912;2023-07-13T17:00:30;98878.06;;;25.65;36.30
66627;BME280;53498;50.422;14.912;2023-07-13T17:02:58;98884.94;;;25.54;35.93
66627;BME280;53498;50.422;14.912;2023-07-13T17:05:29;98892.94;;;25.54;35.82
66627;BME280;53498;50.422;14.912;2023-07-13T17:07:57;98891.75;;;25.58;36.56
66627;BME280;53498;50.422;14.912;2023-07-13T17:10:24;98896.44;;;25.55;36.17
66627;BME280;53498;50.422;14.912;2023-07-13T17:12:51;98895.03;;;25.49;36.41
66627;BME280;53498;50.422;14.912;2023-07-13T17:15:18;98897.75;;;25.62;36.76
66627;BME280;53498;50.422;14.912;2023-07-13T17:17:45;98899.25;;;25.66;36.78
66627;BME280;53498;50.422;14.912;2023-07-13T17:20:18;98902.63;;;25.55;36.63
66627;BME280;53498;50.422;14.912;2023-07-13T17:22:48;98900.16;;;25.52;36.65
66627;BME280;53498;50.422;14.912;2023-07-13T17:25:18;98910.69;;;25.54;36.82
66627;BME280;53498;50.422;14.912;2023-07-13T17:27:44;98907.50;;;25.49;36.68
66627;BME280;53498;50.422;14.912;2023-07-13T17:30:18;98918.53;;;25.43;37.60
66627;BME280;53498;50.422;14.912;2023-07-13T17:32:45;98927.28;;;25.45;37.10
66627;BME280;53498;50.422;14.912;2023-07-13T17:35:24;98929.44;;;25.38;37.74
66627;BME280;53498;50.422;14.912;2023-07-13T17:37:54;98930.53;;;25.35;37.60
66627;BME280;53498;50.422;14.912;2023-07-13T17:40:19;98931.66;;;25.31;38.09
66627;BME280;53498;50.422;14.912;2023-07-13T17:42:48;98934.97;;;25.35;37.80
66627;BME280;53498;50.422;14.912;2023-07-13T17:45:14;98934.03;;;25.36;37.87
66627;BME280;53498;50.422;14.912;2023-07-13T17:47:48;98934.78;;;25.38;38.33
66627;BME280;53498;50.422;14.912;2023-07-13T17:50:25;98938.00;;;25.29;38.16
66627;BME280;53498;50.422;14.912;2023-07-13T17:52:58;98933.47;;;25.17;37.15
66627;BME280;53498;50.422;14.912;2023-07-13T17:55:23;98940.69;;;25.14;36.64
66627;BME280;53498;50.422;14.912;2023-07-13T17:57:49;98947.13;;;25.10;36.98
66627;BME280;53498;50.422;14.912;2023-07-13T18:00:20;98953.75;;;25.03;36.26
66627;BME280;53498;50.422;14.912;2023-07-13T18:02:54;98946.94;;;24.99;36.08
66627;BME280;53498;50.422;14.912;2023-07-13T18:05:23;98946.06;;;24.99;36.03
66627;BME280;53498;50.422;14.912;2023-07-13T18:07:51;98949.38;;;24.88;36.19
66627;BME280;53498;50.422;14.912;2023-07-13T18:10:18;98950.63;;;24.82;36.52
66627;BME280;53498;50.422;14.912;2023-07-13T18:12:44;98949.56;;;24.85;36.42
66627;BME280;53498;50.422;14.912;2023-07-13T18:15:10;98957.84;;;24.80;36.49
66627;BME280;53498;50.422;14.912;2023-07-13T18:17:36;98952.69;;;24.77;36.29
66627;BME280;53498;50.422;14.912;2023-07-13T18:20:05;98950.50;;;24.69;36.70
66627;BME280;53498;50.422;14.912;2023-07-13T18:22:37;98960.56;;;24.64;36.96
66627;BME280;53498;50.422;14.912;2023-07-13T18:25:18;98956.72;;;24.54;37.08
66627;BME280;53498;50.422;14.912;2023-07-13T18:27:44;98955.00;;;24.53;37.53
66627;BME280;53498;50.422;14.912;2023-07-13T18:30:14;98959.75;;;24.48;37.47
66627;BME280;53498;50.422;14.912;2023-07-13T18:32:44;98955.97;;;24.36;37.60
66627;BME280;53498;50.422;14.912;2023-07-13T18:35:26;98962.91;;;24.39;37.59
66627;BME280;53498;50.422;14.912;2023-07-13T18:37:55;98965.16;;;24.31;38.13
66627;BME280;53498;50.422;14.912;2023-07-13T18:40:22;98962.66;;;24.28;38.12
66627;BME280;53498;50.422;14.912;2023-07-13T18:42:54;98972.28;;;24.30;38.38
66627;BME280;53498;50.422;14.912;2023-07-13T18:45:21;98963.44;;;24.30;38.97
66627;BME280;53498;50.422;14.912;2023-07-13T18:47:54;98967.41;;;24.22;38.24
66627;BME280;53498;50.422;14.912;2023-07-13T18:50:29;98969.13;;;24.23;38.32
66627;BME280;53498;50.422;14.912;2023-07-13T18:52:56;98979.75;;;24.23;38.64
66627;BME280;53498;50.422;14.912;2023-07-13T18:55:23;98980.53;;;24.26;38.48
66627;BME280;53498;50.422;14.912;2023-07-13T18:57:49;98985.13;;;24.22;38.29
66627;BME280;53498;50.422;14.912;2023-07-13T19:00:22;98982.75;;;24.17;38.31
66627;BME280;53498;50.422;14.912;2023-07-13T19:02:52;98980.28;;;24.14;38.22
66627;BME280;53498;50.422;14.912;2023-07-13T19:05:21;98986.38;;;24.16;38.75
66627;BME280;53498;50.422;14.912;2023-07-13T19:07:49;98993.91;;;24.08;38.69
66627;BME280;53498;50.422;14.912;2023-07-13T19:10:17;99003.25;;;24.15;39.09
66627;BME280;53498;50.422;14.912;2023-07-13T19:12:45;99008.38;;;24.18;39.31
66627;BME280;53498;50.422;14.912;2023-07-13T19:15:25;99014.81;;;24.14;40.15
66627;BME280;53498;50.422;14.912;2023-07-13T19:17:55;99024.25;;;24.04;41.37
66627;BME280;53498;50.422;14.912;2023-07-13T19:20:21;99022.63;;;24.01;42.26
66627;BME280;53498;50.422;14.912;2023-07-13T19:22:52;99022.47;;;23.89;43.06
66627;BME280;53498;50.422;14.912;2023-07-13T19:25:19;99028.50;;;23.75;44.06
66627;BME280;53498;50.422;14.912;2023-07-13T19:27:46;99032.91;;;23.76;44.20
66627;BME280;53498;50.422;14.912;2023-07-13T19:30:14;99032.38;;;23.69;44.82
66627;BME280;53498;50.422;14.912;2023-07-13T19:32:41;99033.13;;;23.71;44.94
66627;BME280;53498;50.422;14.912;2023-07-13T19:35:07;99034.88;;;23.72;44.76
66627;BME280;53498;50.422;14.912;2023-07-13T19:37:34;99034.94;;;23.71;45.46
66627;BME280;53498;50.422;14.912;2023-07-13T19:40:05;99039.69;;;23.64;45.56
66627;BME280;53498;50.422;14.912;2023-07-13T19:42:39;99039.06;;;23.59;45.54
66627;BME280;53498;50.422;14.912;2023-07-13T19:45:14;99039.53;;;23.67;45.20
66627;BME280;53498;50.422;14.912;2023-07-13T19:47:40;99049.63;;;23.61;44.12
66627;BME280;53498;50.422;14.912;2023-07-13T19:50:06;99048.78;;;23.60;44.91
66627;BME280;53498;50.422;14.912;2023-07-13T19:52:35;99047.22;;;23.56;44.15
66627;BME280;53498;50.422;14.912;2023-07-13T19:55:08;99052.50;;;23.56;43.20
66627;BME280;53498;50.422;14.912;2023-07-13T19:57:36;99060.56;;;23.54;43.00
66627;BME280;53498;50.422;14.912;2023-07-13T20:00:05;99063.63;;;23.47;43.25
66627;BME280;53498;50.422;14.912;2023-07-13T20:02:32;99065.00;;;23.38;43.43
66627;BME280;53498;50.422;14.912;2023-07-13T20:04:58;99061.88;;;23.30;43.61
66627;BME280;53498;50.422;14.912;2023-07-13T20:07:23;99070.00;;;23.27;43.12
66627;BME280;53498;50.422;14.912;2023-07-13T20:09:50;99071.56;;;23.14;43.48
66627;BME280;53498;50.422;14.912;2023-07-13T20:12:23;99081.00;;;23.02;43.53
66627;BME280;53498;50.422;14.912;2023-07-13T20:14:50;99081.25;;;22.97;43.90
66627;BME280;53498;50.422;14.912;2023-07-13T20:17:36;99081.25;;;22.97;43.97
66627;BME280;53498;50.422;14.912;2023-07-13T20:20:17;99078.59;;;22.97;44.50
66627;BME280;53498;50.422;14.912;2023-07-13T20:22:45;99080.53;;;22.94;44.13
66627;BME280;53498;50.422;14.912;2023-07-13T20:25:22;99087.59;;;22.93;43.98
66627;BME280;53498;50.422;14.912;2023-07-13T20:27:50;99088.59;;;22.91;43.84
66627;BME280;53498;50.422;14.912;2023-07-13T20:30:17;99096.56;;;22.91;43.98
66627;BME280;53498;50.422;14.912;2023-07-13T20:32:43;99101.09;;;22.89;43.91
66627;BME280;53498;50.422;14.912;2023-07-13T20:35:28;99106.72;;;22.82;44.45
66627;BME280;53498;50.422;14.912;2023-07-13T20:37:55;99105.31;;;22.75;43.85
66627;BME280;53498;50.422;14.912;2023-07-13T20:40:23;99093.91;;;22.73;44.18
66627;BME280;53498;50.422;14.912;2023-07-13T20:42:55;99094.19;;;22.67;43.80
66627;BME280;53498;50.422;14.912;2023-07-13T20:45:24;99096.22;;;22.62;43.54
66627;BME280;53498;50.422;14.912;2023-07-13T20:47:52;99097.81;;;22.66;43.50
66627;BME280;53498;50.422;14.912;2023-07-13T20:50:30;99102.94;;;22.69;44.93
66627;BME280;53498;50.422;14.912;2023-07-13T20:52:58;99112.75;;;22.67;43.59
66627;BME280;53498;50.422;14.912;2023-07-13T20:55:26;99111.56;;;22.55;43.30
66627;BME280;53498;50.422;14.912;2023-07-13T20:57:52;99104.47;;;22.56;44.25
66627;BME280;53498;50.422;14.912;2023-07-13T21:00:21;99104.59;;;22.53;43.31
66627;BME280;53498;50.422;14.912;2023-07-13T21:02:49;99109.72;;;22.38;43.80
66627;BME280;53498;50.422;14.912;2023-07-13T21:05:19;99108.00;;;22.37;43.66
66627;BME280;53498;50.422;14.912;2023-07-13T21:07:46;99106.44;;;22.33;43.58